createdAt,value
2023-01-27T00:00:55.697Z,11.90
2023-01-27T00:03:23.583Z,13.30
2023-01-27T00:05:51.367Z,12.05
2023-01-27T00:08:19.109Z,11.80
2023-01-27T00:10:46.737Z,12.48
2023-01-27T00:13:32.242Z,13.18
2023-01-27T00:15:59.712Z,13.20
2023-01-27T00:18:27.184Z,12.40
2023-01-27T00:21:13.034Z,13.20
2023-01-27T00:23:59.251Z,13.60
2023-01-27T00:26:26.582Z,13.85
2023-01-27T00:28:54.211Z,13.77
2023-01-27T00:31:40.244Z,13.88
2023-01-27T00:34:10.814Z,13.23
2023-01-27T00:36:41.855Z,12.27
2023-01-27T00:39:09.875Z,11.02
2023-01-27T00:41:37.640Z,12.38
2023-01-27T00:44:05.922Z,11.98
2023-01-27T00:46:33.611Z,10.23
2023-01-27T00:49:01.655Z,10.90
2023-01-27T00:51:29.025Z,11.77
2023-01-27T00:53:56.411Z,14.15
2023-01-27T00:56:23.743Z,12.43
2023-01-27T00:58:51.051Z,13.55
2023-01-27T01:01:18.708Z,13.38
2023-01-27T01:03:52.972Z,13.68
2023-01-27T01:06:31.972Z,11.23
2023-01-27T01:08:59.669Z,11.73
2023-01-27T01:11:27.172Z,10.90
2023-01-27T01:13:56.433Z,13.27
2023-01-27T01:16:28.159Z,11.82
2023-01-27T01:18:56.051Z,12.60
2023-01-27T01:21:23.371Z,12.30
2023-01-27T01:23:50.980Z,11.82
2023-01-27T01:26:18.724Z,12.10
2023-01-27T01:28:47.336Z,13.63
2023-01-27T01:31:16.140Z,13.13
2023-01-27T01:33:54.674Z,13.90
2023-01-27T01:36:39.504Z,13.52
2023-01-27T01:39:08.053Z,11.73
2023-01-27T01:41:35.431Z,14.68
2023-01-27T01:44:21.716Z,12.52
2023-01-27T01:46:49.122Z,12.30
2023-01-27T01:49:28.350Z,12.85
2023-01-27T01:51:58.189Z,12.88
2023-01-27T01:54:30.983Z,13.80
2023-01-27T01:57:07.261Z,13.52
2023-01-27T01:59:37.381Z,14.23
2023-01-27T02:02:07.381Z,13.02
2023-01-27T02:04:39.664Z,12.48
2023-01-27T02:07:07.012Z,13.32
2023-01-27T02:09:34.391Z,12.93
2023-01-27T02:12:01.958Z,13.25
2023-01-27T02:14:29.432Z,14.10
2023-01-27T02:16:58.669Z,14.07
2023-01-27T02:19:40.529Z,13.48
2023-01-27T02:22:25.424Z,16.17
2023-01-27T02:25:14.310Z,13.38
2023-01-27T02:27:45.386Z,13.32
2023-01-27T02:30:17.584Z,12.90
2023-01-27T02:32:44.916Z,13.52
2023-01-27T02:35:14.982Z,12.60
2023-01-27T02:37:44.751Z,12.00
2023-01-27T02:40:14.506Z,13.25
2023-01-27T02:42:47.110Z,12.45
2023-01-27T02:45:14.868Z,11.65
2023-01-27T02:50:17.579Z,11.93
2023-01-27T02:52:44.954Z,13.00
2023-01-27T02:55:18.812Z,10.43
2023-01-27T02:57:46.111Z,12.75
2023-01-27T03:00:13.975Z,11.52
2023-01-27T03:02:41.338Z,11.50
2023-01-27T03:05:08.884Z,11.68
2023-01-27T03:07:36.322Z,12.02
2023-01-27T03:10:03.972Z,13.60
2023-01-27T03:12:31.551Z,13.30
2023-01-27T03:15:17.704Z,12.63
2023-01-27T03:18:08.571Z,12.63
2023-01-27T03:20:49.932Z,11.45
2023-01-27T03:23:27.590Z,12.98
2023-01-27T03:26:08.803Z,12.55
2023-01-27T03:28:40.119Z,12.32
2023-01-27T03:31:20.120Z,11.50
2023-01-27T03:33:48.116Z,12.68
2023-01-27T03:36:36.221Z,11.32
2023-01-27T03:39:22.289Z,12.20
2023-01-27T03:42:10.239Z,12.75
2023-01-27T03:44:56.441Z,12.57
2023-01-27T03:47:24.278Z,12.00
2023-01-27T03:49:51.595Z,11.98
2023-01-27T03:52:18.949Z,11.93
2023-01-27T03:54:46.301Z,11.32
2023-01-27T03:57:13.660Z,12.63
2023-01-27T03:59:41.133Z,12.40
2023-01-27T04:02:27.190Z,10.85
2023-01-27T04:05:13.440Z,11.27
2023-01-27T04:07:41.322Z,11.15
2023-01-27T04:10:08.939Z,11.15
2023-01-27T04:12:36.384Z,12.25
2023-01-27T04:15:04.055Z,11.00
2023-01-27T04:17:39.089Z,14.30
2023-01-27T04:20:06.754Z,10.75
2023-01-27T04:22:34.252Z,9.40
2023-01-27T04:25:01.707Z,10.70
2023-01-27T04:27:29.106Z,12.90
2023-01-27T04:29:56.418Z,11.45
2023-01-27T04:32:24.070Z,11.70
2023-01-27T04:34:51.469Z,10.43
2023-01-27T04:37:18.824Z,9.95
2023-01-27T04:39:47.461Z,11.35
2023-01-27T04:42:14.920Z,11.73
2023-01-27T04:44:42.300Z,11.93
2023-01-27T04:47:09.633Z,10.00
2023-01-27T04:49:36.986Z,10.65
2023-01-27T04:52:04.434Z,12.57
2023-01-27T04:54:31.907Z,10.93
2023-01-27T04:57:00.608Z,10.75
2023-01-27T04:59:28.287Z,11.20
2023-01-27T05:01:55.862Z,10.40
2023-01-27T05:04:23.412Z,11.48
2023-01-27T05:06:52.955Z,9.40
2023-01-27T05:09:24.052Z,9.25
2023-01-27T05:11:52.352Z,10.40
2023-01-27T05:14:23.935Z,9.40
2023-01-27T05:16:51.761Z,9.63
2023-01-27T05:19:19.218Z,9.32
2023-01-27T05:21:46.636Z,8.15
2023-01-27T05:24:22.783Z,10.27
2023-01-27T05:26:50.299Z,9.02
2023-01-27T05:29:18.461Z,9.93
2023-01-27T05:32:00.719Z,7.30
2023-01-27T05:34:28.594Z,9.35
2023-01-27T05:36:56.136Z,8.23
2023-01-27T05:39:23.515Z,8.52
2023-01-27T05:41:50.892Z,9.63
2023-01-27T05:44:29.340Z,11.10
2023-01-27T05:46:57.712Z,8.75
2023-01-27T05:49:26.087Z,6.97
2023-01-27T05:51:53.382Z,8.18
2023-01-27T05:54:28.463Z,8.95
2023-01-27T05:56:56.475Z,8.35
2023-01-27T05:59:25.048Z,7.85
2023-01-27T06:01:52.398Z,7.43
2023-01-27T06:04:21.309Z,8.30
2023-01-27T06:06:49.462Z,7.63
2023-01-27T06:09:18.049Z,9.25
2023-01-27T06:12:09.408Z,8.77
2023-01-27T06:14:51.097Z,11.57
2023-01-27T06:17:18.943Z,11.20
2023-01-27T06:19:49.440Z,11.73
2023-01-27T06:22:16.791Z,12.90
2023-01-27T06:24:51.558Z,12.48
2023-01-27T06:27:18.879Z,13.15
2023-01-27T06:29:56.272Z,12.35
2023-01-27T06:32:23.555Z,11.75
2023-01-27T06:34:57.342Z,12.35
2023-01-27T06:37:24.780Z,12.35
2023-01-27T06:39:57.944Z,11.75
2023-01-27T06:42:29.066Z,13.13
2023-01-27T06:44:59.815Z,11.40
2023-01-27T06:47:27.101Z,10.75
2023-01-27T06:49:54.390Z,13.07
2023-01-27T06:52:21.777Z,11.48
2023-01-27T06:54:49.185Z,11.45
2023-01-27T06:57:16.672Z,9.10
2023-01-27T06:59:44.027Z,8.35
2023-01-27T07:02:14.572Z,8.20
2023-01-27T07:04:47.076Z,5.90
2023-01-27T07:07:14.502Z,4.90
2023-01-27T07:09:52.032Z,5.32
2023-01-27T07:12:20.166Z,4.55
2023-01-27T07:14:47.493Z,4.20
2023-01-27T07:17:14.884Z,5.85
2023-01-27T07:19:42.273Z,5.65
2023-01-27T07:22:09.578Z,4.65
2023-01-27T07:24:36.928Z,4.82
2023-01-27T07:29:56.698Z,4.60
2023-01-27T07:32:26.514Z,4.00
2023-01-27T07:34:55.426Z,4.18
2023-01-27T07:37:23.403Z,3.67
2023-01-27T07:39:50.765Z,3.15
2023-01-27T07:42:18.402Z,2.67
2023-01-27T07:44:56.421Z,2.88
2023-01-27T07:47:24.601Z,2.88
2023-01-27T07:49:52.168Z,2.53
2023-01-27T07:52:19.453Z,2.72
2023-01-27T07:54:58.854Z,3.00
2023-01-27T07:57:26.311Z,2.60
2023-01-27T07:59:56.794Z,3.05
2023-01-27T08:02:24.542Z,2.97
2023-01-27T08:04:53.562Z,3.20
2023-01-27T08:07:22.610Z,3.00
2023-01-27T08:09:50.016Z,2.63
2023-01-27T08:12:20.875Z,3.25
2023-01-27T08:14:49.282Z,2.88
2023-01-27T08:17:16.717Z,3.40
2023-01-27T08:19:44.149Z,3.30
2023-01-27T08:22:11.505Z,3.50
2023-01-27T08:24:38.824Z,3.22
2023-01-27T08:27:08.187Z,3.08
2023-01-27T08:29:35.656Z,4.07
2023-01-27T08:32:02.993Z,4.75
2023-01-27T08:34:30.411Z,4.18
2023-01-27T08:36:57.733Z,3.97
2023-01-27T08:39:25.320Z,4.20
2023-01-27T08:41:52.681Z,5.55
2023-01-27T08:44:20.299Z,5.43
2023-01-27T08:46:47.721Z,4.93
2023-01-27T08:49:15.089Z,5.07
2023-01-27T08:51:42.735Z,4.82
2023-01-27T08:54:10.356Z,7.65
2023-01-27T08:56:37.676Z,6.97
2023-01-27T08:59:05.119Z,6.40
2023-01-27T09:01:32.579Z,12.20
2023-01-27T09:03:59.980Z,18.23
2023-01-27T09:06:27.366Z,7.22
2023-01-27T09:09:11.924Z,6.95
2023-01-27T09:11:42.063Z,7.43
2023-01-27T09:14:12.732Z,6.55
2023-01-27T09:16:43.199Z,6.93
2023-01-27T09:19:10.612Z,7.30
2023-01-27T09:21:38.075Z,6.53
2023-01-27T09:24:33.213Z,7.35
2023-01-27T09:27:03.045Z,6.63
2023-01-27T09:29:31.328Z,6.97
2023-01-27T09:31:58.720Z,7.75
2023-01-27T09:34:31.054Z,8.35
2023-01-27T09:37:03.165Z,7.10
2023-01-27T09:39:50.355Z,6.40
2023-01-27T09:42:53.176Z,5.47
2023-01-27T09:45:25.793Z,5.63
2023-01-27T09:47:56.287Z,6.18
2023-01-27T09:50:48.328Z,4.68
2023-01-27T09:53:18.626Z,6.15
2023-01-27T09:56:17.700Z,5.90
2023-01-27T09:59:07.632Z,5.32
2023-01-27T10:01:47.704Z,6.95
2023-01-27T10:04:40.116Z,5.85
2023-01-27T10:07:26.451Z,4.68
2023-01-27T10:10:16.354Z,4.43
2023-01-27T10:12:44.580Z,3.55
2023-01-27T10:15:13.599Z,3.95
2023-01-27T10:17:56.572Z,3.38
2023-01-27T10:20:26.703Z,5.35
2023-01-27T10:23:00.200Z,5.15
2023-01-27T10:25:34.479Z,5.05
2023-01-27T10:28:04.928Z,5.18
2023-01-27T10:30:36.468Z,5.38
2023-01-27T10:33:06.910Z,4.78
2023-01-27T10:35:40.746Z,4.25
2023-01-27T10:38:20.560Z,4.30
2023-01-27T10:41:00.640Z,3.72
2023-01-27T10:43:28.066Z,4.15
2023-01-27T10:45:58.541Z,4.57
2023-01-27T10:48:35.684Z,3.47
2023-01-27T10:51:06.329Z,5.28
2023-01-27T10:53:36.818Z,4.47
2023-01-27T10:56:13.632Z,6.68
2023-01-27T10:59:02.528Z,4.80
2023-01-27T11:01:33.493Z,5.15
2023-01-27T11:04:16.677Z,5.57
2023-01-27T11:06:44.795Z,5.85
2023-01-27T11:09:26.865Z,6.10
2023-01-27T11:12:03.120Z,5.80
2023-01-27T11:14:39.036Z,5.82
2023-01-27T11:17:18.883Z,5.50
2023-01-27T11:20:05.003Z,4.32
2023-01-27T11:22:58.724Z,4.32
2023-01-27T11:25:26.090Z,3.35
2023-01-27T11:28:12.191Z,3.15
2023-01-27T11:30:43.766Z,4.13
2023-01-27T11:33:21.432Z,3.38
2023-01-27T11:35:49.244Z,2.85
2023-01-27T11:38:19.776Z,3.40
2023-01-27T11:40:47.829Z,3.47
2023-01-27T11:43:18.064Z,3.55
2023-01-27T11:46:02.175Z,3.53
2023-01-27T11:48:36.467Z,4.47
2023-01-27T11:51:05.266Z,5.80
2023-01-27T11:53:40.246Z,6.63
2023-01-27T11:56:15.876Z,4.32
2023-01-27T11:58:57.917Z,3.22
2023-01-27T12:01:29.778Z,4.10
2023-01-27T12:04:00.309Z,2.53
2023-01-27T12:06:32.194Z,2.67
2023-01-27T12:08:59.594Z,2.33
2023-01-27T12:11:28.616Z,1.95
2023-01-27T12:13:56.112Z,2.33
2023-01-27T12:16:25.838Z,2.45
2023-01-27T12:19:06.459Z,5.78
2023-01-27T12:21:41.095Z,3.17
2023-01-27T12:24:14.976Z,2.58
2023-01-27T12:26:44.533Z,2.50
2023-01-27T12:29:18.467Z,2.30
2023-01-27T12:31:50.381Z,3.50
2023-01-27T12:34:27.205Z,2.97
2023-01-27T12:36:55.794Z,3.60
2023-01-27T12:39:33.658Z,2.58
2023-01-27T12:42:01.436Z,3.00
2023-01-27T12:44:40.984Z,2.90
2023-01-27T12:47:24.868Z,2.40
2023-01-27T12:49:52.391Z,2.78
2023-01-27T12:52:20.921Z,5.35
2023-01-27T12:54:51.390Z,3.05
2023-01-27T12:57:21.805Z,0.80
2023-01-27T12:59:51.318Z,1.30
2023-01-27T13:02:23.206Z,1.25
2023-01-27T13:05:08.837Z,0.50
2023-01-27T13:07:40.491Z,0.45
2023-01-27T13:10:17.465Z,1.98
2023-01-27T13:12:52.469Z,2.70
2023-01-27T13:15:21.192Z,3.40
2023-01-27T13:17:52.610Z,1.67
2023-01-27T13:20:25.859Z,1.60
2023-01-27T13:23:02.970Z,1.88
2023-01-27T13:26:15.704Z,4.32
2023-01-27T13:28:52.821Z,7.63
2023-01-27T13:31:43.433Z,1.40
2023-01-27T13:34:26.016Z,0.43
2023-01-27T13:37:07.559Z,0.40
2023-01-27T13:39:48.938Z,0.40
2023-01-27T13:42:34.986Z,0.20
2023-01-27T13:45:05.199Z,0.20
2023-01-27T13:47:42.916Z,0.20
2023-01-27T13:50:23.156Z,0.13
2023-01-27T13:52:59.188Z,0.10
2023-01-27T13:55:52.144Z,0.00
2023-01-27T13:58:21.425Z,0.10
2023-01-27T14:00:59.230Z,0.00
2023-01-27T14:03:42.807Z,0.00
2023-01-27T14:06:26.717Z,0.08
2023-01-27T14:08:59.748Z,0.00
2023-01-27T14:11:41.810Z,0.00
2023-01-27T14:14:18.895Z,0.00
2023-01-27T14:17:02.663Z,0.10
2023-01-27T14:20:08.716Z,0.00
2023-01-27T14:23:02.993Z,0.00
2023-01-27T14:25:35.690Z,0.10
2023-01-27T14:28:21.948Z,0.32
2023-01-27T14:30:55.797Z,0.00
2023-01-27T14:33:44.166Z,0.00
2023-01-27T14:36:11.598Z,0.03
2023-01-27T14:38:44.681Z,0.10
2023-01-27T14:41:22.511Z,0.00
2023-01-27T14:43:54.107Z,0.10
2023-01-27T14:46:30.255Z,0.20
2023-01-27T14:49:02.637Z,0.15
2023-01-27T14:51:30.146Z,0.10
2023-01-27T14:54:07.640Z,0.20
2023-01-27T14:56:38.130Z,0.10
2023-01-27T14:59:21.129Z,0.13
2023-01-27T15:01:48.439Z,0.30
2023-01-27T15:04:34.721Z,0.30
2023-01-27T15:07:09.660Z,0.43
2023-01-27T15:09:57.340Z,0.30
2023-01-27T15:12:37.553Z,0.20
2023-01-27T15:15:14.267Z,0.20
2023-01-27T15:18:00.681Z,0.20
2023-01-27T15:20:48.691Z,0.10
2023-01-27T15:23:34.214Z,0.20
2023-01-27T15:26:06.409Z,0.30
2023-01-27T15:28:35.964Z,0.25
2023-01-27T15:31:12.782Z,0.30
2023-01-27T15:33:50.157Z,0.15
2023-01-27T15:36:31.986Z,0.30
2023-01-27T15:39:00.397Z,0.20
2023-01-27T15:41:27.909Z,0.35
2023-01-27T15:44:14.213Z,0.20
2023-01-27T15:46:51.744Z,0.20
2023-01-27T15:49:19.255Z,0.20
2023-01-27T15:51:46.809Z,0.20
2023-01-27T15:54:34.495Z,0.20
2023-01-27T15:57:05.624Z,0.30
2023-01-27T15:59:46.801Z,0.20
2023-01-27T16:02:27.136Z,0.30
2023-01-27T16:04:56.573Z,0.20
2023-01-27T16:07:31.869Z,0.20
2023-01-27T16:12:32.420Z,0.20
2023-01-27T16:15:02.834Z,0.60
2023-01-27T16:17:33.828Z,0.50
2023-01-27T16:20:25.330Z,0.50
2023-01-27T16:22:56.095Z,0.20
2023-01-27T16:25:28.060Z,0.10
2023-01-27T16:28:01.615Z,0.30
2023-01-27T16:30:49.449Z,0.15
2023-01-27T16:33:19.919Z,0.22
2023-01-27T16:35:47.346Z,0.20
2023-01-27T16:38:32.420Z,0.30
2023-01-27T16:41:04.213Z,0.93
2023-01-27T16:43:41.828Z,0.28
2023-01-27T16:46:21.888Z,0.20
2023-01-27T16:48:50.288Z,0.20
2023-01-27T16:51:26.273Z,0.30
2023-01-27T16:53:54.543Z,0.20
2023-01-27T16:56:24.867Z,0.22
2023-01-27T16:58:54.264Z,0.30
2023-01-27T17:01:23.816Z,0.40
2023-01-27T17:04:07.681Z,0.30
2023-01-27T17:06:45.389Z,0.30
2023-01-27T17:09:32.213Z,0.30
2023-01-27T17:12:00.136Z,0.30
2023-01-27T17:14:34.882Z,0.30
2023-01-27T17:17:03.873Z,0.10
2023-01-27T17:19:33.251Z,0.20
2023-01-27T17:22:02.017Z,0.20
2023-01-27T17:24:34.132Z,0.20
2023-01-27T17:27:02.732Z,0.20
2023-01-27T17:29:36.025Z,0.20
2023-01-27T17:32:03.598Z,0.40
2023-01-27T17:34:31.183Z,0.43
2023-01-27T17:37:10.387Z,0.20
2023-01-27T17:39:39.573Z,0.20
2023-01-27T17:42:07.028Z,0.30
2023-01-27T17:44:34.784Z,0.30
2023-01-27T17:47:02.555Z,0.57
2023-01-27T17:49:31.843Z,0.38
2023-01-27T17:52:00.384Z,0.90
2023-01-27T17:54:33.439Z,0.50
2023-01-27T17:57:10.248Z,0.50
2023-01-27T17:59:39.968Z,0.45
2023-01-27T18:02:14.677Z,0.60
2023-01-27T18:04:43.015Z,0.60
2023-01-27T18:07:12.055Z,1.10
2023-01-27T18:09:45.320Z,1.00
2023-01-27T18:12:26.045Z,0.73
2023-01-27T18:14:53.487Z,0.80
2023-01-27T18:17:24.906Z,0.90
2023-01-27T18:19:53.962Z,0.90
2023-01-27T18:22:21.560Z,0.98
2023-01-27T18:25:00.859Z,1.17
2023-01-27T18:27:34.338Z,0.88
2023-01-27T18:30:04.641Z,0.70
2023-01-27T18:32:42.436Z,0.85
2023-01-27T18:35:27.031Z,0.77
2023-01-27T18:38:05.193Z,1.02
2023-01-27T18:40:34.303Z,0.80
2023-01-27T18:43:03.161Z,0.70
2023-01-27T18:45:30.694Z,1.10
2023-01-27T18:47:59.734Z,0.68
2023-01-27T18:50:27.866Z,0.90
2023-01-27T18:52:55.394Z,1.13
2023-01-27T18:55:29.947Z,0.90
2023-01-27T18:57:58.697Z,0.88
2023-01-27T19:00:26.260Z,0.77
2023-01-27T19:02:56.723Z,0.70
2023-01-27T19:05:26.795Z,0.70
2023-01-27T19:07:55.474Z,0.77
2023-01-27T19:10:25.200Z,0.60
2023-01-27T19:12:53.431Z,1.00
2023-01-27T19:15:24.173Z,0.63
2023-01-27T19:17:52.573Z,1.33
2023-01-27T19:20:22.184Z,1.30
2023-01-27T19:22:50.708Z,1.05
2023-01-27T19:25:18.134Z,0.98
2023-01-27T19:27:47.616Z,1.00
2023-01-27T19:30:23.432Z,0.90
2023-01-27T19:32:50.781Z,1.20
2023-01-27T19:35:18.169Z,0.80
2023-01-27T19:37:45.847Z,1.00
2023-01-27T19:40:17.735Z,0.80
2023-01-27T19:42:45.258Z,0.63
2023-01-27T19:45:15.008Z,1.23
2023-01-27T19:47:45.084Z,0.90
2023-01-27T19:50:21.616Z,1.00
2023-01-27T19:52:49.108Z,1.17
2023-01-27T19:55:17.255Z,0.80
2023-01-27T19:57:45.289Z,1.90
2023-01-27T20:00:33.226Z,2.58
2023-01-27T20:03:00.826Z,1.80
2023-01-27T20:05:29.252Z,1.00
2023-01-27T20:07:57.348Z,1.00
2023-01-27T20:10:26.436Z,1.10
2023-01-27T20:13:14.838Z,0.90
2023-01-27T20:15:42.551Z,0.73
2023-01-27T20:18:13.605Z,0.73
2023-01-27T20:20:41.903Z,0.80
2023-01-27T20:23:10.166Z,1.05
2023-01-27T20:25:37.585Z,1.17
2023-01-27T20:28:05.085Z,1.00
2023-01-27T20:30:34.368Z,2.00
2023-01-27T20:33:02.576Z,1.50
2023-01-27T20:35:30.204Z,1.77
2023-01-27T20:37:57.980Z,2.97
2023-01-27T20:40:27.528Z,2.83
2023-01-27T20:42:55.286Z,2.53
2023-01-27T20:45:22.999Z,2.53
2023-01-27T20:47:53.797Z,3.35
2023-01-27T20:50:22.950Z,3.20
2023-01-27T20:52:51.765Z,3.08
2023-01-27T20:55:19.857Z,2.35
2023-01-27T20:57:47.919Z,2.67
2023-01-27T21:00:17.184Z,3.15
2023-01-27T21:02:44.503Z,2.63
2023-01-27T21:05:12.693Z,2.83
2023-01-27T21:07:40.331Z,3.10
2023-01-27T21:10:08.350Z,2.45
2023-01-27T21:12:35.787Z,1.63
2023-01-27T21:15:08.192Z,1.85
2023-01-27T21:17:35.547Z,2.05
2023-01-27T21:20:02.874Z,4.28
2023-01-27T21:22:30.280Z,2.47
2023-01-27T21:24:58.064Z,2.53
2023-01-27T21:27:25.465Z,1.30
2023-01-27T21:29:53.055Z,1.15
2023-01-27T21:32:20.387Z,2.17
2023-01-27T21:34:47.712Z,1.05
2023-01-27T21:37:15.023Z,0.85
2023-01-27T21:39:42.386Z,0.95
2023-01-27T21:42:14.345Z,0.73
2023-01-27T21:45:00.457Z,0.70
2023-01-27T21:47:28.352Z,0.85
2023-01-27T21:50:01.918Z,0.63
2023-01-27T21:52:39.708Z,0.90
2023-01-27T21:55:11.028Z,1.05
2023-01-27T21:57:38.543Z,1.55
2023-01-27T22:00:08.443Z,1.45
2023-01-27T22:02:36.241Z,1.70
2023-01-27T22:05:03.601Z,1.85
2023-01-27T22:07:34.413Z,0.73
2023-01-27T22:10:01.745Z,1.40
2023-01-27T22:12:29.162Z,1.80
2023-01-27T22:14:56.467Z,1.80
2023-01-27T22:17:23.951Z,0.93
2023-01-27T22:19:51.271Z,0.98
2023-01-27T22:22:18.697Z,0.85
2023-01-27T22:24:46.189Z,0.90
2023-01-27T22:27:13.531Z,1.80
2023-01-27T22:29:40.942Z,1.98
2023-01-27T22:32:08.236Z,4.40
2023-01-27T22:34:35.607Z,21.50
2023-01-27T22:37:03.005Z,5.13
2023-01-27T22:39:30.343Z,2.38
2023-01-27T22:41:57.801Z,1.30
2023-01-27T22:44:25.173Z,1.35
2023-01-27T22:46:52.680Z,1.10
2023-01-27T22:49:19.975Z,0.80
2023-01-27T22:51:48.904Z,1.08
2023-01-27T22:54:16.371Z,1.20
2023-01-27T22:56:43.854Z,1.13
2023-01-27T22:59:14.360Z,0.63
2023-01-27T23:01:41.875Z,0.80
2023-01-27T23:04:11.371Z,0.70
2023-01-27T23:06:38.745Z,0.65
2023-01-27T23:09:06.187Z,1.00
2023-01-27T23:11:34.012Z,0.90
2023-01-27T23:14:01.995Z,1.35
2023-01-27T23:16:29.442Z,0.80
2023-01-27T23:18:56.778Z,0.82
2023-01-27T23:21:24.177Z,0.80
2023-01-27T23:23:51.681Z,0.85
2023-01-27T23:26:19.126Z,1.13
2023-01-27T23:28:46.529Z,1.17
2023-01-27T23:31:14.367Z,1.40
2023-01-27T23:33:42.972Z,1.27
2023-01-27T23:36:10.921Z,1.60
2023-01-27T23:38:38.685Z,1.23
2023-01-27T23:41:07.665Z,1.30
2023-01-27T23:43:35.402Z,1.00
2023-01-27T23:46:02.870Z,1.42
2023-01-27T23:48:30.273Z,1.20
2023-01-27T23:50:57.911Z,1.02
2023-01-27T23:53:25.382Z,1.35
2023-01-27T23:55:59.405Z,1.70
2023-01-27T23:58:27.475Z,1.35
